San Miguel de Allende, GUA, Mexico
Current Conditions -  °F | °C
As of 1:45 AM on Monday 24 Nov 2014 (Local Time) from MMQT Reporting Station
Clear Clear  
Wind Chill: 50°   Ceiling: Unl
Heat Index: 50°   Visibility: 8mi
Dew Point: 37°   Wind: 5mph
Humidity: 62%   Direction: 250°WSW
Pressure: 30.21"   Gusts: NA
Location:  20.92°N, 100.75°W
Report Text: MMQT 240745Z 25004KT 8SM SKC 10/03 A3021
Loading
Personal Weather Stations






























Interactive Weather Map New forecast layout! Learn more

10-Day Weather Forecast

Advertisements
Track Severe Weather on mobile